createdAt,value
2017-10-14T00:00:29.983Z,19.42
2017-10-14T00:01:36.015Z,21.50
2017-10-14T00:02:42.192Z,21.50
2017-10-14T00:03:48.089Z,20.73
2017-10-14T00:04:54.077Z,22.15
2017-10-14T00:06:00.034Z,21.77
2017-10-14T00:07:05.684Z,20.23
2017-10-14T00:08:11.569Z,24.10
2017-10-14T00:09:17.529Z,21.05
2017-10-14T00:10:24.243Z,21.85
2017-10-14T00:11:30.066Z,20.60
2017-10-14T00:12:35.645Z,19.27
2017-10-14T00:13:41.457Z,20.52
2017-10-14T00:14:47.222Z,22.52
2017-10-14T00:15:52.804Z,20.23
2017-10-14T00:16:58.590Z,20.23
2017-10-14T00:18:04.409Z,20.88
2017-10-14T00:19:10.188Z,25.80
2017-10-14T00:20:15.773Z,22.58
2017-10-14T00:21:22.292Z,22.45
2017-10-14T00:22:28.069Z,21.85
2017-10-14T00:23:34.583Z,21.48
2017-10-14T00:24:40.363Z,22.15
2017-10-14T00:25:46.888Z,22.35
2017-10-14T00:26:52.647Z,20.12
2017-10-14T00:27:58.426Z,22.20
2017-10-14T00:29:04.945Z,23.02
2017-10-14T00:30:12.241Z,24.80
2017-10-14T00:31:18.773Z,22.90
2017-10-14T00:32:25.098Z,21.77
2017-10-14T00:33:30.862Z,20.50
2017-10-14T00:34:36.624Z,22.00
2017-10-14T00:35:42.423Z,22.52
2017-10-14T00:36:48.183Z,23.85
2017-10-14T00:37:53.944Z,23.33
2017-10-14T00:38:59.704Z,21.83
2017-10-14T00:40:05.484Z,21.45
2017-10-14T00:41:11.364Z,24.20
2017-10-14T00:42:16.936Z,24.20
2017-10-14T00:43:23.477Z,23.30
2017-10-14T00:44:29.567Z,23.80
2017-10-14T00:45:35.133Z,24.55
2017-10-14T00:46:40.916Z,22.67
2017-10-14T00:47:47.432Z,26.65
2017-10-14T00:48:53.189Z,22.85
2017-10-14T00:49:58.990Z,23.95
2017-10-14T00:51:05.342Z,25.98
2017-10-14T00:52:11.136Z,23.70
2017-10-14T00:53:16.912Z,24.90
2017-10-14T00:54:23.439Z,25.80
2017-10-14T00:55:28.504Z,23.75
2017-10-14T00:56:33.919Z,26.00
2017-10-14T00:57:39.796Z,22.92
2017-10-14T00:58:45.224Z,29.10
2017-10-14T00:59:50.363Z,23.77
2017-10-14T01:00:55.787Z,27.35
2017-10-14T01:02:01.937Z,30.48
2017-10-14T01:03:07.727Z,25.10
2017-10-14T01:04:13.494Z,26.50
2017-10-14T01:05:20.241Z,23.80
2017-10-14T01:06:26.424Z,30.85
2017-10-14T01:07:32.960Z,24.67
2017-10-14T01:08:38.747Z,26.27
2017-10-14T01:09:44.557Z,24.15
2017-10-14T01:10:50.734Z,24.17
2017-10-14T01:11:56.504Z,24.90
2017-10-14T01:13:02.269Z,23.23
2017-10-14T01:14:07.377Z,25.30
2017-10-14T01:15:13.137Z,26.00
2017-10-14T01:16:18.906Z,23.95
2017-10-14T01:17:25.450Z,31.30
2017-10-14T01:18:32.725Z,27.98
2017-10-14T01:19:38.589Z,24.27
2017-10-14T01:20:44.236Z,26.37
2017-10-14T01:21:49.312Z,27.30
2017-10-14T01:22:55.008Z,27.20
2017-10-14T01:24:00.073Z,24.75
2017-10-14T01:25:05.532Z,26.00
2017-10-14T01:26:12.131Z,28.70
2017-10-14T01:27:17.535Z,25.58
2017-10-14T01:28:23.709Z,27.65
2017-10-14T01:29:29.121Z,26.00
2017-10-14T01:30:35.667Z,25.30
2017-10-14T01:31:41.085Z,24.40
2017-10-14T01:32:46.153Z,25.27
2017-10-14T01:33:52.332Z,26.50
2017-10-14T01:34:58.104Z,25.25
2017-10-14T01:36:03.202Z,26.92
2017-10-14T01:37:08.625Z,26.87
2017-10-14T01:38:14.058Z,25.00
2017-10-14T01:39:19.125Z,26.87
2017-10-14T01:40:24.192Z,24.58
2017-10-14T01:41:30.399Z,26.87
2017-10-14T01:42:35.822Z,26.83
2017-10-14T01:43:41.330Z,23.40
2017-10-14T01:44:46.396Z,24.83
2017-10-14T01:45:51.477Z,27.77
2017-10-14T01:46:57.260Z,29.17
2017-10-14T01:48:02.544Z,30.30
2017-10-14T01:49:07.949Z,28.08
2017-10-14T01:50:13.035Z,26.37
2017-10-14T01:51:18.101Z,26.33
2017-10-14T01:52:23.540Z,25.33
2017-10-14T01:53:29.382Z,29.20
2017-10-14T01:54:35.218Z,27.90
2017-10-14T01:55:40.280Z,25.62
2017-10-14T01:56:45.352Z,26.87
2017-10-14T01:57:52.671Z,31.02
2017-10-14T01:58:58.846Z,28.02
2017-10-14T02:00:04.616Z,27.48
2017-10-14T02:01:10.413Z,25.60
2017-10-14T02:02:16.173Z,28.73
2017-10-14T02:03:21.968Z,29.10
2017-10-14T02:04:27.733Z,26.58
2017-10-14T02:05:33.495Z,28.23
2017-10-14T02:06:39.272Z,29.27
2017-10-14T02:07:45.079Z,24.92
2017-10-14T02:08:50.885Z,26.00
2017-10-14T02:09:57.224Z,25.88
2017-10-14T02:11:02.988Z,27.67
2017-10-14T02:12:09.518Z,27.20
2017-10-14T02:13:15.276Z,24.25
2017-10-14T02:14:21.843Z,26.75
2017-10-14T02:15:28.368Z,26.70
2017-10-14T02:16:34.142Z,25.45
2017-10-14T02:17:39.930Z,27.02
2017-10-14T02:18:45.710Z,25.23
2017-10-14T02:19:51.492Z,25.65
2017-10-14T02:20:57.253Z,25.70
2017-10-14T02:22:03.016Z,27.25
2017-10-14T02:23:08.777Z,25.67
2017-10-14T02:24:14.087Z,23.50
2017-10-14T02:25:19.665Z,25.15
2017-10-14T02:26:26.195Z,24.08
2017-10-14T02:27:31.958Z,24.65
2017-10-14T02:28:37.716Z,23.17
2017-10-14T02:29:44.292Z,24.20
2017-10-14T02:30:50.084Z,24.25
2017-10-14T02:31:56.425Z,28.77
2017-10-14T02:33:02.003Z,24.40
2017-10-14T02:34:08.532Z,24.83
2017-10-14T02:35:14.302Z,24.75
2017-10-14T02:36:20.858Z,22.90
2017-10-14T02:37:27.387Z,24.75
2017-10-14T02:38:33.156Z,23.87
2017-10-14T02:39:39.696Z,29.63
2017-10-14T02:40:45.474Z,26.58
2017-10-14T02:41:52.021Z,24.12
2017-10-14T02:42:58.570Z,24.52
2017-10-14T02:44:04.132Z,27.40
2017-10-14T02:45:10.694Z,26.98
2017-10-14T02:46:17.253Z,27.33
2017-10-14T02:47:23.808Z,21.48
2017-10-14T02:48:30.337Z,24.23
2017-10-14T02:49:36.104Z,22.73
2017-10-14T02:50:42.645Z,23.23
2017-10-14T02:51:48.440Z,23.60
2017-10-14T02:52:54.020Z,26.75
2017-10-14T02:53:59.611Z,26.55
2017-10-14T02:55:05.378Z,23.23
2017-10-14T02:56:11.156Z,19.60
2017-10-14T02:57:16.729Z,25.83
2017-10-14T02:58:22.773Z,25.95
2017-10-14T02:59:28.534Z,27.83
2017-10-14T03:00:34.300Z,23.45
2017-10-14T03:01:40.061Z,26.40
2017-10-14T03:02:45.946Z,27.17
2017-10-14T03:03:51.525Z,28.58
2017-10-14T03:04:57.371Z,25.30
2017-10-14T03:06:03.132Z,27.77
2017-10-14T03:07:08.889Z,22.25
2017-10-14T03:08:15.426Z,21.60
2017-10-14T03:09:21.210Z,27.90
2017-10-14T03:10:26.976Z,25.77
2017-10-14T03:11:32.746Z,24.52
2017-10-14T03:12:39.268Z,24.77
2017-10-14T03:13:45.028Z,23.17
2017-10-14T03:14:50.640Z,22.33
2017-10-14T03:15:56.443Z,23.70
2017-10-14T03:17:02.013Z,24.92
2017-10-14T03:18:07.804Z,20.33
2017-10-14T03:19:13.609Z,21.65
2017-10-14T03:20:19.431Z,25.17
2017-10-14T03:21:25.193Z,21.50
2017-10-14T03:22:30.960Z,20.17
2017-10-14T03:23:36.728Z,20.30
2017-10-14T03:24:42.503Z,23.92
2017-10-14T03:25:48.288Z,21.35
2017-10-14T03:26:54.057Z,22.77
2017-10-14T03:27:59.804Z,22.33
2017-10-14T03:29:06.336Z,22.90
2017-10-14T03:30:12.106Z,23.17
2017-10-14T03:31:18.711Z,20.58
2017-10-14T03:32:24.492Z,19.83
2017-10-14T03:33:30.257Z,22.25
2017-10-14T03:34:36.780Z,23.95
2017-10-14T03:35:42.559Z,20.27
2017-10-14T03:36:49.113Z,20.30
2017-10-14T03:37:55.648Z,20.58
2017-10-14T03:39:02.177Z,21.62
2017-10-14T03:40:07.956Z,17.23
2017-10-14T03:41:13.719Z,20.62
2017-10-14T03:42:20.276Z,19.52
2017-10-14T03:43:26.816Z,17.95
2017-10-14T03:44:32.576Z,21.75
2017-10-14T03:45:39.124Z,19.73
2017-10-14T03:46:44.916Z,19.77
2017-10-14T03:47:50.714Z,21.80
2017-10-14T03:48:56.474Z,23.40
2017-10-14T03:50:03.004Z,23.65
2017-10-14T03:51:09.540Z,18.65
2017-10-14T03:52:15.353Z,20.15
2017-10-14T03:53:21.137Z,20.65
2017-10-14T03:54:26.918Z,19.98
2017-10-14T03:55:33.246Z,22.13
2017-10-14T03:56:39.035Z,19.87
2017-10-14T03:57:45.551Z,22.87
2017-10-14T03:58:51.146Z,23.65
2017-10-14T03:59:56.913Z,22.42
2017-10-14T04:01:02.695Z,19.58
2017-10-14T04:02:09.252Z,19.92
2017-10-14T04:03:15.853Z,18.15
2017-10-14T04:04:21.759Z,20.75
2017-10-14T04:05:28.276Z,25.50
2017-10-14T04:06:33.865Z,20.05
2017-10-14T04:07:39.641Z,16.77
2017-10-14T04:08:45.660Z,22.83
2017-10-14T04:09:51.451Z,19.45
2017-10-14T04:10:57.256Z,20.15
2017-10-14T04:12:03.503Z,21.33
2017-10-14T04:13:09.266Z,18.33
2017-10-14T04:14:15.034Z,19.77
2017-10-14T04:15:20.826Z,21.62
2017-10-14T04:16:26.583Z,24.33
2017-10-14T04:17:32.371Z,19.05
2017-10-14T04:18:38.146Z,19.70
2017-10-14T04:19:43.908Z,21.95
2017-10-14T04:20:49.524Z,21.50
2017-10-14T04:21:56.056Z,19.12
2017-10-14T04:23:01.649Z,20.10
2017-10-14T04:24:07.447Z,23.12
2017-10-14T04:25:13.196Z,23.67
2017-10-14T04:26:19.760Z,21.37
2017-10-14T04:27:26.295Z,23.50
2017-10-14T04:28:32.057Z,23.20
2017-10-14T04:29:38.382Z,22.37
2017-10-14T04:30:44.146Z,18.40
2017-10-14T04:31:50.488Z,18.27
2017-10-14T04:32:56.249Z,21.10
2017-10-14T04:34:02.797Z,20.80
2017-10-14T04:35:09.327Z,20.27
2017-10-14T04:36:15.095Z,21.35
2017-10-14T04:37:20.881Z,19.40
2017-10-14T04:38:26.644Z,22.52
2017-10-14T04:39:32.413Z,23.08
2017-10-14T04:40:38.188Z,19.75
2017-10-14T04:41:43.768Z,19.62
2017-10-14T04:42:49.368Z,20.25
2017-10-14T04:43:55.136Z,18.92
2017-10-14T04:45:00.904Z,21.55
2017-10-14T04:46:06.665Z,22.15
2017-10-14T04:47:13.197Z,19.35
2017-10-14T04:48:18.988Z,19.20
2017-10-14T04:49:24.572Z,20.33
2017-10-14T04:50:30.384Z,20.05
2017-10-14T04:51:36.157Z,22.75
2017-10-14T04:52:41.970Z,18.42
2017-10-14T04:53:47.763Z,20.95
2017-10-14T04:54:54.283Z,20.20
2017-10-14T04:56:00.053Z,21.48
2017-10-14T04:57:05.816Z,18.45
2017-10-14T04:58:12.343Z,21.87
2017-10-14T04:59:18.144Z,22.05
2017-10-14T05:00:24.676Z,23.40
2017-10-14T05:01:30.245Z,20.55
2017-10-14T05:02:36.020Z,20.75
2017-10-14T05:03:41.808Z,20.55
2017-10-14T05:04:48.360Z,20.67
2017-10-14T05:05:54.705Z,20.27
2017-10-14T05:07:00.477Z,20.80
2017-10-14T05:08:07.002Z,21.12
2017-10-14T05:09:12.798Z,21.10
2017-10-14T05:10:18.403Z,21.92
2017-10-14T05:11:24.933Z,23.02
2017-10-14T05:12:31.460Z,19.70
2017-10-14T05:13:37.255Z,20.42
2017-10-14T05:14:43.280Z,19.85
2017-10-14T05:15:49.060Z,24.17
2017-10-14T05:16:55.594Z,20.17
2017-10-14T05:18:02.884Z,28.67
2017-10-14T05:19:09.443Z,20.55
2017-10-14T05:20:15.204Z,19.00
2017-10-14T05:21:21.761Z,22.27
2017-10-14T05:22:28.100Z,20.45
2017-10-14T05:23:35.368Z,23.48
2017-10-14T05:24:41.146Z,24.95
2017-10-14T05:25:47.674Z,21.50
2017-10-14T05:26:53.465Z,22.27
2017-10-14T05:27:59.235Z,21.12
2017-10-14T05:29:05.005Z,23.10
2017-10-14T05:30:10.766Z,22.02
2017-10-14T05:31:16.348Z,19.77
2017-10-14T05:32:21.957Z,21.27
2017-10-14T05:33:27.732Z,25.00
2017-10-14T05:34:33.501Z,19.92
2017-10-14T05:35:39.260Z,23.77
2017-10-14T05:36:45.812Z,22.40
2017-10-14T05:37:52.377Z,22.58
2017-10-14T05:38:58.901Z,21.87
2017-10-14T05:40:04.483Z,24.25
2017-10-14T05:41:11.004Z,23.65
2017-10-14T05:42:16.772Z,19.58
2017-10-14T05:43:23.324Z,21.83
2017-10-14T05:44:29.923Z,19.87
2017-10-14T05:45:35.677Z,16.92
2017-10-14T05:46:41.449Z,20.65
2017-10-14T05:47:47.212Z,21.20
2017-10-14T05:48:52.996Z,23.30
2017-10-14T05:49:58.760Z,20.40
2017-10-14T05:51:04.525Z,23.25
2017-10-14T05:52:10.365Z,23.73
2017-10-14T05:53:16.397Z,19.95
2017-10-14T05:54:22.190Z,23.20
2017-10-14T05:55:28.725Z,18.48
2017-10-14T05:56:35.306Z,20.48
2017-10-14T05:57:41.828Z,22.67
2017-10-14T05:58:48.367Z,20.25
2017-10-14T05:59:54.156Z,20.62
2017-10-14T06:01:00.694Z,19.98
2017-10-14T06:02:06.113Z,20.02
2017-10-14T06:03:11.872Z,23.25
2017-10-14T06:04:17.637Z,23.48
2017-10-14T06:05:23.791Z,22.90
2017-10-14T06:06:30.324Z,23.02
2017-10-14T06:07:35.915Z,18.48
2017-10-14T06:08:41.684Z,18.87
2017-10-14T06:09:47.447Z,18.70
2017-10-14T06:10:53.041Z,22.30
2017-10-14T06:11:58.841Z,19.70
2017-10-14T06:13:04.605Z,19.75
2017-10-14T06:14:10.372Z,19.08
2017-10-14T06:15:16.142Z,17.85
2017-10-14T06:16:22.048Z,21.75
2017-10-14T06:17:27.807Z,19.60
2017-10-14T06:18:33.569Z,21.67
2017-10-14T06:19:39.127Z,19.00
2017-10-14T06:20:45.657Z,19.83
2017-10-14T06:21:51.441Z,21.40
2017-10-14T06:22:57.972Z,21.45
2017-10-14T06:24:03.732Z,28.58
2017-10-14T06:25:10.277Z,24.73
2017-10-14T06:26:16.096Z,24.77
2017-10-14T06:27:21.888Z,23.10
2017-10-14T06:28:28.418Z,23.83
2017-10-14T06:29:34.177Z,22.83
2017-10-14T06:30:40.717Z,22.85
2017-10-14T06:31:46.489Z,20.45
2017-10-14T06:32:52.307Z,23.83
2017-10-14T06:33:58.076Z,20.12
2017-10-14T06:35:04.613Z,25.45
2017-10-14T06:36:11.139Z,23.65
2017-10-14T06:37:16.919Z,25.73
2017-10-14T06:38:22.709Z,25.60
2017-10-14T06:39:28.477Z,24.30
2017-10-14T06:40:34.237Z,23.12
2017-10-14T06:41:40.007Z,24.60
2017-10-14T06:42:46.551Z,27.95
2017-10-14T06:43:52.353Z,23.27
2017-10-14T06:44:58.101Z,22.70
2017-10-14T06:46:03.861Z,28.90
2017-10-14T06:47:09.629Z,20.67
2017-10-14T06:48:15.985Z,20.75
2017-10-14T06:49:22.541Z,24.70
2017-10-14T06:50:28.888Z,20.75
2017-10-14T06:51:34.469Z,21.77
2017-10-14T06:52:40.236Z,23.17
2017-10-14T06:53:46.019Z,24.05
2017-10-14T06:54:52.573Z,22.52
2017-10-14T06:55:59.100Z,22.80
2017-10-14T06:57:04.864Z,19.75
2017-10-14T06:58:10.630Z,22.50
2017-10-14T06:59:17.163Z,20.85
2017-10-14T07:00:24.448Z,24.60
2017-10-14T07:01:30.216Z,22.75
2017-10-14T07:02:36.745Z,21.73
2017-10-14T07:03:42.573Z,23.33
2017-10-14T07:04:48.374Z,20.52
2017-10-14T07:05:54.156Z,24.55
2017-10-14T07:06:59.928Z,18.98
2017-10-14T07:08:06.469Z,19.45
2017-10-14T07:09:12.226Z,19.80
2017-10-14T07:10:17.993Z,21.77
2017-10-14T07:11:23.788Z,20.83
2017-10-14T07:12:30.320Z,16.50
2017-10-14T07:13:36.084Z,20.90
2017-10-14T07:14:41.853Z,20.10
2017-10-14T07:15:48.423Z,18.85
2017-10-14T07:16:54.985Z,16.75
2017-10-14T07:18:01.597Z,17.87
2017-10-14T07:19:07.368Z,20.42
2017-10-14T07:20:14.640Z,18.20
2017-10-14T07:21:21.190Z,14.27
2017-10-14T07:22:27.457Z,21.60
2017-10-14T07:23:33.234Z,18.60
2017-10-14T07:24:39.299Z,15.38
2017-10-14T07:25:45.110Z,17.90
2017-10-14T07:26:51.180Z,13.20
2017-10-14T07:27:56.948Z,15.98
2017-10-14T07:29:02.765Z,16.65
2017-10-14T07:30:08.636Z,14.87
2017-10-14T07:31:15.094Z,18.00
2017-10-14T07:32:20.859Z,13.65
2017-10-14T07:33:26.806Z,16.50
2017-10-14T07:34:32.959Z,16.40
2017-10-14T07:35:38.736Z,14.38
2017-10-14T07:36:44.537Z,13.75
2017-10-14T07:37:50.361Z,12.37
2017-10-14T07:38:56.136Z,11.73
2017-10-14T07:40:01.952Z,14.30
2017-10-14T07:41:07.731Z,12.55
2017-10-14T07:42:14.073Z,14.07
2017-10-14T07:43:19.848Z,14.45
2017-10-14T07:44:26.433Z,13.35
2017-10-14T07:45:32.014Z,12.68
2017-10-14T07:46:37.805Z,11.48
2017-10-14T07:47:43.631Z,10.93
2017-10-14T07:48:50.150Z,11.52
2017-10-14T07:49:55.966Z,11.00
2017-10-14T07:51:01.715Z,12.63
2017-10-14T07:52:07.474Z,12.30
2017-10-14T07:53:13.253Z,10.82
2017-10-14T07:54:19.783Z,11.32
2017-10-14T07:55:25.569Z,10.43
2017-10-14T07:56:31.410Z,10.77
2017-10-14T07:57:37.951Z,10.80
2017-10-14T07:58:44.483Z,11.95
2017-10-14T07:59:50.251Z,10.82
2017-10-14T08:00:56.797Z,11.52
2017-10-14T08:02:02.554Z,10.60
2017-10-14T08:03:09.090Z,10.65
2017-10-14T08:04:14.844Z,10.45
2017-10-14T08:05:21.377Z,9.82
2017-10-14T08:06:27.066Z,11.05
2017-10-14T08:07:33.815Z,9.20
2017-10-14T08:08:39.585Z,9.45
2017-10-14T08:09:45.705Z,9.48
2017-10-14T08:10:51.320Z,8.35
2017-10-14T08:11:57.090Z,9.25
2017-10-14T08:13:03.437Z,9.50
2017-10-14T08:14:09.909Z,9.77
2017-10-14T08:15:16.449Z,10.38
2017-10-14T08:16:22.194Z,9.43
2017-10-14T08:17:27.973Z,8.38
2017-10-14T08:18:33.721Z,9.43
2017-10-14T08:19:39.476Z,9.13
2017-10-14T08:20:45.244Z,8.18
2017-10-14T08:21:50.988Z,9.80
2017-10-14T08:22:56.764Z,8.68
2017-10-14T08:24:03.287Z,8.07
2017-10-14T08:25:09.079Z,9.02
2017-10-14T08:26:15.660Z,8.80
2017-10-14T08:27:21.433Z,8.23
2017-10-14T08:28:27.228Z,8.90
2017-10-14T08:29:33.008Z,9.90
2017-10-14T08:30:38.760Z,8.48
2017-10-14T08:31:44.506Z,8.77
2017-10-14T08:32:50.291Z,6.87
2017-10-14T08:33:56.829Z,7.57
2017-10-14T08:35:03.372Z,7.75
2017-10-14T08:36:09.970Z,8.13
2017-10-14T08:37:15.699Z,8.43
2017-10-14T08:38:22.219Z,8.43
2017-10-14T08:39:27.994Z,8.75
2017-10-14T08:40:34.549Z,7.75
2017-10-14T08:41:40.298Z,7.03
2017-10-14T08:42:46.800Z,8.25
2017-10-14T08:43:52.592Z,7.75
2017-10-14T08:44:59.860Z,7.07
2017-10-14T08:46:05.611Z,7.00
2017-10-14T08:47:12.144Z,7.75
2017-10-14T08:48:17.892Z,8.35
2017-10-14T08:49:23.637Z,8.48
2017-10-14T08:50:30.184Z,6.90
2017-10-14T08:51:35.961Z,6.90
2017-10-14T08:52:42.495Z,8.55
2017-10-14T08:53:48.236Z,7.20
2017-10-14T08:54:53.985Z,9.45
2017-10-14T08:55:59.748Z,8.00
2017-10-14T08:57:06.253Z,7.32
2017-10-14T08:58:12.000Z,8.07
2017-10-14T08:59:17.736Z,8.10
2017-10-14T09:00:23.548Z,7.65
2017-10-14T09:01:29.904Z,6.82
2017-10-14T09:02:35.689Z,7.60
2017-10-14T09:03:41.434Z,7.00
2017-10-14T09:04:47.185Z,6.80
2017-10-14T09:05:52.967Z,6.60
2017-10-14T09:06:59.504Z,6.50
2017-10-14T09:08:06.025Z,6.75
2017-10-14T09:09:11.770Z,7.35
2017-10-14T09:10:17.567Z,8.52
2017-10-14T09:11:23.633Z,6.93
2017-10-14T09:12:29.407Z,6.47
2017-10-14T09:13:35.154Z,5.93
2017-10-14T09:14:40.896Z,6.57
2017-10-14T09:15:46.650Z,6.60
2017-10-14T09:16:53.157Z,7.28
2017-10-14T09:17:58.932Z,6.97
2017-10-14T09:19:04.693Z,6.25
2017-10-14T09:20:10.424Z,7.72
2017-10-14T09:21:16.173Z,6.43
2017-10-14T09:22:21.942Z,5.90
2017-10-14T09:23:28.482Z,5.80
2017-10-14T09:24:34.814Z,5.82
2017-10-14T09:25:40.373Z,5.50
2017-10-14T09:26:46.711Z,6.03
2017-10-14T09:27:52.252Z,5.47
2017-10-14T09:28:57.860Z,5.62
2017-10-14T09:30:03.431Z,5.22
2017-10-14T09:31:09.212Z,4.80
2017-10-14T09:32:14.773Z,5.05
2017-10-14T09:33:20.543Z,5.20
2017-10-14T09:34:26.160Z,3.42
2017-10-14T09:35:31.727Z,5.07
2017-10-14T09:36:37.087Z,4.65
2017-10-14T09:37:43.416Z,3.78
2017-10-14T09:38:49.172Z,3.60
2017-10-14T09:39:55.728Z,4.20
2017-10-14T09:41:02.241Z,3.35
2017-10-14T09:42:07.994Z,3.65
2017-10-14T09:43:13.768Z,3.30
2017-10-14T09:44:19.552Z,5.75
2017-10-14T09:45:25.334Z,4.18
2017-10-14T09:46:31.080Z,4.10
2017-10-14T09:47:38.341Z,4.03
2017-10-14T09:48:44.127Z,3.60
2017-10-14T09:49:50.637Z,3.67
2017-10-14T09:50:56.414Z,3.05
2017-10-14T09:52:02.164Z,2.90
2017-10-14T09:53:08.680Z,3.00
2017-10-14T09:54:14.433Z,3.45
2017-10-14T09:55:20.184Z,4.28
2017-10-14T09:56:25.964Z,4.03
2017-10-14T09:57:31.717Z,3.78
2017-10-14T09:58:37.475Z,3.12
2017-10-14T09:59:43.220Z,3.62
2017-10-14T10:00:48.964Z,3.25
2017-10-14T10:01:54.739Z,3.53
2017-10-14T10:03:01.257Z,4.03
2017-10-14T10:04:07.009Z,3.70
2017-10-14T10:05:12.612Z,5.20
2017-10-14T10:06:18.352Z,3.53
2017-10-14T10:07:24.128Z,3.37
2017-10-14T10:08:29.889Z,5.10
2017-10-14T10:09:35.637Z,3.58
2017-10-14T10:10:42.147Z,3.25
2017-10-14T10:11:47.902Z,3.35
2017-10-14T10:12:53.677Z,2.92
2017-10-14T10:14:00.946Z,3.60
2017-10-14T10:15:06.699Z,2.75
2017-10-14T10:16:13.568Z,3.30
2017-10-14T10:17:19.318Z,3.97
2017-10-14T10:18:25.142Z,4.53
2017-10-14T10:19:30.992Z,3.58
2017-10-14T10:20:36.767Z,3.25
2017-10-14T10:21:43.282Z,10.68
2017-10-14T10:22:49.079Z,4.15
2017-10-14T10:23:54.840Z,3.70
2017-10-14T10:25:00.596Z,3.42
2017-10-14T10:26:06.345Z,3.70
2017-10-14T10:27:12.144Z,4.65
2017-10-14T10:28:17.756Z,4.32
2017-10-14T10:29:24.139Z,3.42
2017-10-14T10:30:29.895Z,3.87
2017-10-14T10:31:35.662Z,3.62
2017-10-14T10:32:41.259Z,3.92
2017-10-14T10:33:47.006Z,2.87
2017-10-14T10:34:53.148Z,3.97
2017-10-14T10:35:59.655Z,5.75
2017-10-14T10:37:05.453Z,5.43
2017-10-14T10:38:11.229Z,5.20
2017-10-14T10:39:16.986Z,3.72
2017-10-14T10:40:22.765Z,3.50
2017-10-14T10:41:29.280Z,4.60
2017-10-14T10:42:35.038Z,3.78
2017-10-14T10:43:40.776Z,3.80
2017-10-14T10:44:48.031Z,3.53
2017-10-14T10:45:53.833Z,3.78
2017-10-14T10:47:00.348Z,4.32
2017-10-14T10:48:06.093Z,3.80
2017-10-14T10:49:11.855Z,3.87
2017-10-14T10:50:17.389Z,3.90
2017-10-14T10:51:23.744Z,3.12
2017-10-14T10:52:30.257Z,5.25
2017-10-14T10:53:35.999Z,3.90
2017-10-14T10:54:41.754Z,4.07
2017-10-14T10:55:47.522Z,3.78
2017-10-14T10:56:54.114Z,3.85
2017-10-14T10:57:59.724Z,4.12
2017-10-14T10:59:06.256Z,3.53
2017-10-14T11:00:12.046Z,10.95
2017-10-14T11:01:18.779Z,4.05
2017-10-14T11:02:24.561Z,3.95
2017-10-14T11:04:29.332Z,3.80
2017-10-14T11:05:35.086Z,4.72
2017-10-14T11:06:40.840Z,4.20
2017-10-14T11:07:47.553Z,3.75
2017-10-14T11:08:53.357Z,4.43
2017-10-14T11:09:59.890Z,4.20
2017-10-14T11:11:05.654Z,4.00
2017-10-14T11:12:12.357Z,3.78
2017-10-14T11:13:18.391Z,3.70
2017-10-14T11:14:24.455Z,4.05
2017-10-14T11:15:30.517Z,3.00
2017-10-14T11:16:38.536Z,3.40
2017-10-14T11:17:44.531Z,3.12
2017-10-14T11:18:50.477Z,2.75
2017-10-14T11:19:56.292Z,3.65
2017-10-14T11:21:02.048Z,3.47
2017-10-14T11:22:08.561Z,3.62
2017-10-14T11:23:14.364Z,2.80
2017-10-14T11:24:20.166Z,3.55
2017-10-14T11:25:25.908Z,3.50
2017-10-14T11:26:31.762Z,3.12
2017-10-14T11:27:37.513Z,3.28
2017-10-14T11:28:44.069Z,3.25
2017-10-14T11:29:50.648Z,3.58
2017-10-14T11:30:57.162Z,3.30
2017-10-14T11:32:03.343Z,4.12
2017-10-14T11:33:09.866Z,3.28
2017-10-14T11:34:15.616Z,3.40
2017-10-14T11:35:21.409Z,3.00
2017-10-14T11:36:27.168Z,3.75
2017-10-14T11:37:32.916Z,3.33
2017-10-14T11:38:38.660Z,3.20
2017-10-14T11:39:44.420Z,3.25
2017-10-14T11:40:50.209Z,2.90
2017-10-14T11:41:55.957Z,2.53
2017-10-14T11:43:02.533Z,3.17
2017-10-14T11:44:08.297Z,2.83
2017-10-14T11:45:14.531Z,3.47
2017-10-14T11:46:20.340Z,2.85
2017-10-14T11:47:26.897Z,3.22
2017-10-14T11:48:34.245Z,3.42
2017-10-14T11:49:39.996Z,3.75
2017-10-14T11:50:47.273Z,3.00
2017-10-14T11:51:53.706Z,2.40
2017-10-14T11:52:59.453Z,3.50
2017-10-14T11:54:05.207Z,3.42
2017-10-14T11:55:11.403Z,2.92
2017-10-14T11:56:17.193Z,3.35
2017-10-14T11:57:23.004Z,2.55
2017-10-14T11:58:28.764Z,3.05
2017-10-14T11:59:34.516Z,2.72
2017-10-14T12:00:40.415Z,2.47
2017-10-14T12:01:46.178Z,2.65
2017-10-14T12:02:51.985Z,4.07
2017-10-14T12:03:58.518Z,3.47
2017-10-14T12:05:04.278Z,2.78
2017-10-14T12:06:10.872Z,4.15
2017-10-14T12:07:16.627Z,2.50
2017-10-14T12:08:22.420Z,2.78
2017-10-14T12:09:28.943Z,2.33
2017-10-14T12:10:34.693Z,3.25
2017-10-14T12:11:40.447Z,2.55
2017-10-14T12:12:46.225Z,2.78
2017-10-14T12:13:52.002Z,2.65
2017-10-14T12:14:57.760Z,2.00
2017-10-14T12:16:03.510Z,2.83
2017-10-14T12:17:09.296Z,2.92
2017-10-14T12:18:15.113Z,2.12
2017-10-14T12:19:20.908Z,2.62
2017-10-14T12:20:26.713Z,2.45
2017-10-14T12:21:33.224Z,2.80
2017-10-14T12:22:44.769Z,2.70
2017-10-14T12:23:50.518Z,2.97
2017-10-14T12:24:57.064Z,3.10
2017-10-14T12:26:02.619Z,2.90
2017-10-14T12:27:08.368Z,3.08
2017-10-14T12:28:14.901Z,3.50
2017-10-14T12:29:20.664Z,2.47
2017-10-14T12:30:26.338Z,3.00
2017-10-14T12:31:32.843Z,2.85
2017-10-14T12:32:38.602Z,2.67
2017-10-14T12:33:44.374Z,2.78
2017-10-14T12:34:50.528Z,2.58
2017-10-14T12:35:56.316Z,2.62
2017-10-14T12:37:02.061Z,2.33
2017-10-14T12:38:07.813Z,2.65
2017-10-14T12:39:13.606Z,2.37
2017-10-14T12:40:19.367Z,3.37
2017-10-14T12:41:28.501Z,2.35
2017-10-14T12:42:34.243Z,3.80
2017-10-14T12:43:40.067Z,3.58
2017-10-14T12:44:45.822Z,2.58
2017-10-14T12:45:51.597Z,2.87
2017-10-14T12:46:57.170Z,2.42
2017-10-14T12:48:04.737Z,2.97
2017-10-14T12:49:10.485Z,2.70
2017-10-14T12:50:16.362Z,3.22
2017-10-14T12:51:22.114Z,2.58
2017-10-14T12:52:27.904Z,3.05
2017-10-14T12:53:33.652Z,2.95
2017-10-14T12:54:39.401Z,2.15
2017-10-14T12:55:45.169Z,2.85
2017-10-14T12:56:50.922Z,3.37
2017-10-14T12:57:56.697Z,3.97
2017-10-14T12:59:02.442Z,3.47
2017-10-14T13:00:08.183Z,3.25
2017-10-14T13:01:13.934Z,2.50
2017-10-14T13:02:20.446Z,5.30
2017-10-14T13:03:26.240Z,2.55
2017-10-14T13:04:32.029Z,2.70
2017-10-14T13:05:37.594Z,2.50
2017-10-14T13:06:43.344Z,2.42
2017-10-14T13:07:48.935Z,3.03
2017-10-14T13:08:55.481Z,3.15
2017-10-14T13:10:01.998Z,2.60
2017-10-14T13:11:07.750Z,2.97
2017-10-14T13:12:13.509Z,2.50
2017-10-14T13:13:19.689Z,3.05
2017-10-14T13:14:26.067Z,3.12
2017-10-14T13:15:31.890Z,4.55
2017-10-14T13:16:37.697Z,3.70
2017-10-14T13:17:43.505Z,3.17
2017-10-14T13:18:49.443Z,2.75
2017-10-14T13:19:55.290Z,2.87
2017-10-14T13:21:01.033Z,3.70
2017-10-14T13:22:06.800Z,3.55
2017-10-14T13:23:12.549Z,2.80
2017-10-14T13:24:18.328Z,3.45
2017-10-14T13:25:24.136Z,3.25
2017-10-14T13:26:30.177Z,3.60
2017-10-14T13:27:36.710Z,3.37
2017-10-14T13:28:42.460Z,3.33
2017-10-14T13:29:48.224Z,3.00
2017-10-14T13:30:54.032Z,2.85
2017-10-14T13:31:59.777Z,2.42
2017-10-14T13:33:05.613Z,2.78
2017-10-14T13:34:12.186Z,3.83
2017-10-14T13:35:17.942Z,2.42
2017-10-14T13:36:24.804Z,3.45
2017-10-14T13:37:30.558Z,2.65
2017-10-14T13:38:37.076Z,3.03
2017-10-14T13:39:42.401Z,3.67
2017-10-14T13:40:48.155Z,2.97
2017-10-14T13:41:53.932Z,2.85
2017-10-14T13:42:59.507Z,3.37
2017-10-14T13:44:06.533Z,3.22
2017-10-14T13:45:12.296Z,3.28
2017-10-14T13:46:18.053Z,3.00
2017-10-14T13:47:24.465Z,3.37
2017-10-14T13:48:30.231Z,3.30
2017-10-14T13:49:36.018Z,3.05
2017-10-14T13:50:41.775Z,4.97
2017-10-14T13:51:47.336Z,4.03
2017-10-14T13:52:53.116Z,3.30
2017-10-14T13:53:59.645Z,4.12
2017-10-14T13:55:05.413Z,3.00
2017-10-14T13:56:12.749Z,3.62
2017-10-14T13:57:18.491Z,4.70
2017-10-14T13:58:24.699Z,2.87
2017-10-14T13:59:31.233Z,3.85
2017-10-14T14:00:36.986Z,3.20
2017-10-14T14:01:43.508Z,3.72
2017-10-14T14:02:49.276Z,3.28
2017-10-14T14:03:55.063Z,2.95
2017-10-14T14:05:00.826Z,3.15
2017-10-14T14:06:06.585Z,2.60
2017-10-14T14:07:12.336Z,2.50
2017-10-14T14:08:18.089Z,2.50
2017-10-14T14:09:24.442Z,2.42
2017-10-14T14:10:31.047Z,4.45
2017-10-14T14:11:36.608Z,3.15
2017-10-14T14:12:42.369Z,2.80
2017-10-14T14:13:48.130Z,4.62
2017-10-14T14:14:54.695Z,2.60
2017-10-14T14:16:01.209Z,2.45
2017-10-14T14:17:06.961Z,2.53
2017-10-14T14:18:12.713Z,2.47
2017-10-14T14:19:18.465Z,2.30
2017-10-14T14:20:24.248Z,2.20
2017-10-14T14:21:30.002Z,2.87
2017-10-14T14:22:35.748Z,2.45